sensor_id;sensor_type;location;lat;lon;timestamp;P1;durP1;ratioP1;P2;durP2;ratioP2
41817;SDS011;27493;51.730;5.294;2023-04-02T00:00:33;15.90;;;10.90;;
41817;SDS011;27493;51.730;5.294;2023-04-02T00:03:02;14.47;;;11.00;;
41817;SDS011;27493;51.730;5.294;2023-04-02T00:10:52;13.63;;;10.13;;
41817;SDS011;27493;51.730;5.294;2023-04-02T00:13:21;15.27;;;10.63;;
41817;SDS011;27493;51.730;5.294;2023-04-02T00:15:48;17.67;;;11.83;;
41817;SDS011;27493;51.730;5.294;2023-04-02T00:18:14;18.50;;;12.03;;
41817;SDS011;27493;51.730;5.294;2023-04-02T00:20:40;18.63;;;12.60;;
41817;SDS011;27493;51.730;5.294;2023-04-02T00:23:08;17.87;;;12.13;;
41817;SDS011;27493;51.730;5.294;2023-04-02T00:25:36;16.17;;;12.80;;
41817;SDS011;27493;51.730;5.294;2023-04-02T00:28:08;18.77;;;12.97;;
41817;SDS011;27493;51.730;5.294;2023-04-02T00:30:34;15.77;;;11.97;;
41817;SDS011;27493;51.730;5.294;2023-04-02T00:33:00;15.10;;;11.47;;
41817;SDS011;27493;51.730;5.294;2023-04-02T00:35:26;17.00;;;11.73;;
41817;SDS011;27493;51.730;5.294;2023-04-02T00:37:52;15.47;;;10.90;;
41817;SDS011;27493;51.730;5.294;2023-04-02T00:40:24;15.23;;;11.63;;
41817;SDS011;27493;51.730;5.294;2023-04-02T00:42:51;14.53;;;11.37;;
41817;SDS011;27493;51.730;5.294;2023-04-02T00:45:21;18.10;;;11.93;;
41817;SDS011;27493;51.730;5.294;2023-04-02T00:47:47;14.53;;;11.30;;
41817;SDS011;27493;51.730;5.294;2023-04-02T00:52:39;13.83;;;10.90;;
41817;SDS011;27493;51.730;5.294;2023-04-02T00:55:07;15.43;;;10.63;;
41817;SDS011;27493;51.730;5.294;2023-04-02T00:57:34;13.83;;;11.13;;
41817;SDS011;27493;51.730;5.294;2023-04-02T01:00:09;14.07;;;10.30;;
41817;SDS011;27493;51.730;5.294;2023-04-02T01:02:36;12.07;;;9.97;;
41817;SDS011;27493;51.730;5.294;2023-04-02T01:08:00;13.80;;;10.50;;
41817;SDS011;27493;51.730;5.294;2023-04-02T01:23:03;23.20;;;14.90;;
41817;SDS011;27493;51.730;5.294;2023-04-02T01:25:39;22.00;;;15.83;;
41817;SDS011;27493;51.730;5.294;2023-04-02T01:28:10;21.77;;;15.10;;
41817;SDS011;27493;51.730;5.294;2023-04-02T01:30:38;22.40;;;15.90;;
41817;SDS011;27493;51.730;5.294;2023-04-02T01:33:05;20.37;;;14.67;;
41817;SDS011;27493;51.730;5.294;2023-04-02T01:35:32;20.97;;;14.83;;
41817;SDS011;27493;51.730;5.294;2023-04-02T01:38:02;20.67;;;14.33;;
41817;SDS011;27493;51.730;5.294;2023-04-02T01:40:33;21.50;;;14.93;;
41817;SDS011;27493;51.730;5.294;2023-04-02T01:43:15;21.33;;;14.63;;
41817;SDS011;27493;51.730;5.294;2023-04-02T01:45:44;17.93;;;14.50;;
41817;SDS011;27493;51.730;5.294;2023-04-02T01:48:14;19.37;;;14.07;;
41817;SDS011;27493;51.730;5.294;2023-04-02T01:50:40;19.10;;;14.43;;
41817;SDS011;27493;51.730;5.294;2023-04-02T01:53:13;20.77;;;13.27;;
41817;SDS011;27493;51.730;5.294;2023-04-02T01:55:44;20.37;;;13.77;;
41817;SDS011;27493;51.730;5.294;2023-04-02T01:58:11;21.07;;;14.33;;
41817;SDS011;27493;51.730;5.294;2023-04-02T02:01:12;25.10;;;15.10;;
41817;SDS011;27493;51.730;5.294;2023-04-02T02:03:33;17.53;;;13.33;;
41817;SDS011;27493;51.730;5.294;2023-04-02T02:05:58;22.70;;;14.30;;
41817;SDS011;27493;51.730;5.294;2023-04-02T02:08:38;19.80;;;13.77;;
41817;SDS011;27493;51.730;5.294;2023-04-02T02:11:09;19.77;;;13.63;;
41817;SDS011;27493;51.730;5.294;2023-04-02T02:13:37;20.50;;;14.00;;
41817;SDS011;27493;51.730;5.294;2023-04-02T02:16:03;19.37;;;14.17;;
41817;SDS011;27493;51.730;5.294;2023-04-02T02:18:28;17.87;;;13.47;;
41817;SDS011;27493;51.730;5.294;2023-04-02T02:20:53;17.27;;;13.13;;
41817;SDS011;27493;51.730;5.294;2023-04-02T02:23:21;16.43;;;13.00;;
41817;SDS011;27493;51.730;5.294;2023-04-02T02:25:46;18.70;;;12.57;;
41817;SDS011;27493;51.730;5.294;2023-04-02T02:28:22;17.67;;;12.57;;
41817;SDS011;27493;51.730;5.294;2023-04-02T02:30:55;17.17;;;12.50;;
41817;SDS011;27493;51.730;5.294;2023-04-02T02:33:24;18.80;;;12.90;;
41817;SDS011;27493;51.730;5.294;2023-04-02T02:38:22;18.40;;;13.70;;
41817;SDS011;27493;51.730;5.294;2023-04-02T02:40:49;22.30;;;13.63;;
41817;SDS011;27493;51.730;5.294;2023-04-02T02:43:16;18.93;;;13.93;;
41817;SDS011;27493;51.730;5.294;2023-04-02T02:45:42;18.73;;;13.87;;
41817;SDS011;27493;51.730;5.294;2023-04-02T02:48:11;21.50;;;13.77;;
41817;SDS011;27493;51.730;5.294;2023-04-02T02:50:37;19.33;;;14.27;;
41817;SDS011;27493;51.730;5.294;2023-04-02T02:53:06;20.70;;;13.73;;
41817;SDS011;27493;51.730;5.294;2023-04-02T02:55:32;20.13;;;14.17;;
41817;SDS011;27493;51.730;5.294;2023-04-02T02:58:03;18.60;;;13.23;;
41817;SDS011;27493;51.730;5.294;2023-04-02T03:00:30;19.53;;;14.60;;
41817;SDS011;27493;51.730;5.294;2023-04-02T03:02:55;19.93;;;14.30;;
41817;SDS011;27493;51.730;5.294;2023-04-02T03:05:22;21.20;;;13.20;;
41817;SDS011;27493;51.730;5.294;2023-04-02T03:07:49;19.43;;;13.83;;
41817;SDS011;27493;51.730;5.294;2023-04-02T03:10:18;22.00;;;14.57;;
41817;SDS011;27493;51.730;5.294;2023-04-02T03:12:52;19.63;;;13.80;;
41817;SDS011;27493;51.730;5.294;2023-04-02T03:15:22;18.97;;;13.47;;
41817;SDS011;27493;51.730;5.294;2023-04-02T03:17:56;19.70;;;12.77;;
41817;SDS011;27493;51.730;5.294;2023-04-02T03:20:34;18.70;;;12.57;;
41817;SDS011;27493;51.730;5.294;2023-04-02T03:28:22;19.43;;;13.63;;
41817;SDS011;27493;51.730;5.294;2023-04-02T03:30:51;16.87;;;12.90;;
41817;SDS011;27493;51.730;5.294;2023-04-02T03:33:32;18.17;;;12.50;;
41817;SDS011;27493;51.730;5.294;2023-04-02T03:35:59;16.47;;;12.63;;
41817;SDS011;27493;51.730;5.294;2023-04-02T03:38:33;16.83;;;12.07;;
41817;SDS011;27493;51.730;5.294;2023-04-02T03:43:41;17.63;;;11.17;;
41817;SDS011;27493;51.730;5.294;2023-04-02T03:48:53;16.80;;;11.50;;
41817;SDS011;27493;51.730;5.294;2023-04-02T03:51:33;19.00;;;11.73;;
41817;SDS011;27493;51.730;5.294;2023-04-02T03:54:00;17.30;;;11.87;;
41817;SDS011;27493;51.730;5.294;2023-04-02T03:56:34;15.87;;;12.03;;
41817;SDS011;27493;51.730;5.294;2023-04-02T03:59:12;19.57;;;12.40;;
41817;SDS011;27493;51.730;5.294;2023-04-02T04:01:48;19.30;;;12.70;;
41817;SDS011;27493;51.730;5.294;2023-04-02T04:04:16;19.37;;;12.73;;
41817;SDS011;27493;51.730;5.294;2023-04-02T04:06:43;16.00;;;12.60;;
41817;SDS011;27493;51.730;5.294;2023-04-02T04:09:21;17.53;;;12.40;;
41817;SDS011;27493;51.730;5.294;2023-04-02T04:11:48;15.70;;;11.53;;
41817;SDS011;27493;51.730;5.294;2023-04-02T04:14:15;16.20;;;12.00;;
41817;SDS011;27493;51.730;5.294;2023-04-02T04:16:50;17.13;;;12.50;;
41817;SDS011;27493;51.730;5.294;2023-04-02T04:19:37;18.17;;;12.10;;
41817;SDS011;27493;51.730;5.294;2023-04-02T04:22:08;16.30;;;12.53;;
41817;SDS011;27493;51.730;5.294;2023-04-02T04:24:34;18.37;;;12.20;;
41817;SDS011;27493;51.730;5.294;2023-04-02T04:32:21;15.00;;;11.50;;
41817;SDS011;27493;51.730;5.294;2023-04-02T04:34:51;20.53;;;12.77;;
41817;SDS011;27493;51.730;5.294;2023-04-02T04:37:22;20.57;;;13.13;;
41817;SDS011;27493;51.730;5.294;2023-04-02T04:39:53;16.00;;;12.77;;
41817;SDS011;27493;51.730;5.294;2023-04-02T04:42:21;16.90;;;12.50;;
41817;SDS011;27493;51.730;5.294;2023-04-02T04:44:57;17.60;;;13.03;;
41817;SDS011;27493;51.730;5.294;2023-04-02T04:47:37;17.83;;;12.37;;
41817;SDS011;27493;51.730;5.294;2023-04-02T04:52:32;19.97;;;13.23;;
41817;SDS011;27493;51.730;5.294;2023-04-02T04:54:58;18.80;;;14.17;;
41817;SDS011;27493;51.730;5.294;2023-04-02T04:57:31;20.60;;;13.73;;
41817;SDS011;27493;51.730;5.294;2023-04-02T05:00:12;21.57;;;14.47;;
41817;SDS011;27493;51.730;5.294;2023-04-02T05:02:46;21.00;;;13.93;;
41817;SDS011;27493;51.730;5.294;2023-04-02T05:05:16;18.57;;;13.47;;
41817;SDS011;27493;51.730;5.294;2023-04-02T05:07:43;22.03;;;13.70;;
41817;SDS011;27493;51.730;5.294;2023-04-02T05:10:16;18.90;;;12.20;;
41817;SDS011;27493;51.730;5.294;2023-04-02T05:12:58;16.07;;;12.20;;
41817;SDS011;27493;51.730;5.294;2023-04-02T05:15:40;18.53;;;11.80;;
41817;SDS011;27493;51.730;5.294;2023-04-02T05:18:15;20.37;;;12.20;;
41817;SDS011;27493;51.730;5.294;2023-04-02T05:20:50;15.10;;;11.37;;
41817;SDS011;27493;51.730;5.294;2023-04-02T05:23:25;17.37;;;12.83;;
41817;SDS011;27493;51.730;5.294;2023-04-02T05:33:28;16.70;;;11.90;;
41817;SDS011;27493;51.730;5.294;2023-04-02T05:38:26;18.67;;;12.43;;
41817;SDS011;27493;51.730;5.294;2023-04-02T05:40:59;20.23;;;13.03;;
41817;SDS011;27493;51.730;5.294;2023-04-02T05:43:25;17.43;;;12.00;;
41817;SDS011;27493;51.730;5.294;2023-04-02T05:45:52;17.73;;;12.13;;
41817;SDS011;27493;51.730;5.294;2023-04-02T05:48:25;15.60;;;11.53;;
41817;SDS011;27493;51.730;5.294;2023-04-02T05:50:51;19.97;;;10.77;;
41817;SDS011;27493;51.730;5.294;2023-04-02T05:56:11;15.23;;;10.63;;
41817;SDS011;27493;51.730;5.294;2023-04-02T05:58:40;16.03;;;11.10;;
41817;SDS011;27493;51.730;5.294;2023-04-02T06:03:46;17.93;;;10.50;;
41817;SDS011;27493;51.730;5.294;2023-04-02T06:06:26;16.30;;;10.50;;
41817;SDS011;27493;51.730;5.294;2023-04-02T06:08:56;14.13;;;9.47;;
41817;SDS011;27493;51.730;5.294;2023-04-02T06:11:24;13.57;;;9.60;;
41817;SDS011;27493;51.730;5.294;2023-04-02T06:13:50;15.57;;;9.83;;
41817;SDS011;27493;51.730;5.294;2023-04-02T06:16:16;15.27;;;10.30;;
41817;SDS011;27493;51.730;5.294;2023-04-02T06:18:41;13.50;;;8.67;;
41817;SDS011;27493;51.730;5.294;2023-04-02T06:21:07;14.30;;;8.70;;
41817;SDS011;27493;51.730;5.294;2023-04-02T06:23:38;11.43;;;8.43;;
41817;SDS011;27493;51.730;5.294;2023-04-02T06:28:44;10.67;;;7.40;;
41817;SDS011;27493;51.730;5.294;2023-04-02T06:31:25;13.07;;;7.40;;
41817;SDS011;27493;51.730;5.294;2023-04-02T06:33:51;8.20;;;6.27;;
41817;SDS011;27493;51.730;5.294;2023-04-02T06:36:19;8.93;;;5.80;;
41817;SDS011;27493;51.730;5.294;2023-04-02T06:38:44;8.37;;;5.63;;
41817;SDS011;27493;51.730;5.294;2023-04-02T06:41:13;7.93;;;5.10;;
41817;SDS011;27493;51.730;5.294;2023-04-02T06:43:46;8.70;;;5.23;;
41817;SDS011;27493;51.730;5.294;2023-04-02T06:46:14;7.07;;;5.10;;
41817;SDS011;27493;51.730;5.294;2023-04-02T06:48:41;8.27;;;5.30;;
41817;SDS011;27493;51.730;5.294;2023-04-02T06:51:08;8.73;;;4.57;;
41817;SDS011;27493;51.730;5.294;2023-04-02T06:53:35;6.13;;;4.33;;
41817;SDS011;27493;51.730;5.294;2023-04-02T06:58:44;4.47;;;3.50;;
41817;SDS011;27493;51.730;5.294;2023-04-02T07:01:21;9.37;;;3.80;;
41817;SDS011;27493;51.730;5.294;2023-04-02T07:03:47;9.03;;;3.33;;
41817;SDS011;27493;51.730;5.294;2023-04-02T07:06:16;5.17;;;3.20;;
41817;SDS011;27493;51.730;5.294;2023-04-02T07:11:41;4.20;;;2.90;;
41817;SDS011;27493;51.730;5.294;2023-04-02T07:20:19;5.80;;;3.50;;
41817;SDS011;27493;51.730;5.294;2023-04-02T07:22:47;5.07;;;3.27;;
41817;SDS011;27493;51.730;5.294;2023-04-02T07:25:13;7.30;;;3.00;;
41817;SDS011;27493;51.730;5.294;2023-04-02T07:27:38;3.13;;;2.83;;
41817;SDS011;27493;51.730;5.294;2023-04-02T07:30:03;4.27;;;2.73;;
41817;SDS011;27493;51.730;5.294;2023-04-02T07:32:28;5.40;;;2.87;;
41817;SDS011;27493;51.730;5.294;2023-04-02T07:34:54;8.33;;;3.33;;
41817;SDS011;27493;51.730;5.294;2023-04-02T07:37:19;5.93;;;2.73;;
41817;SDS011;27493;51.730;5.294;2023-04-02T07:39:44;3.53;;;2.90;;
41817;SDS011;27493;51.730;5.294;2023-04-02T07:42:09;3.47;;;2.70;;
41817;SDS011;27493;51.730;5.294;2023-04-02T07:44:35;5.77;;;2.70;;
41817;SDS011;27493;51.730;5.294;2023-04-02T07:47:00;7.73;;;2.60;;
41817;SDS011;27493;51.730;5.294;2023-04-02T07:49:25;4.33;;;2.90;;
41817;SDS011;27493;51.730;5.294;2023-04-02T07:51:51;4.57;;;2.67;;
41817;SDS011;27493;51.730;5.294;2023-04-02T07:54:16;6.10;;;3.00;;
41817;SDS011;27493;51.730;5.294;2023-04-02T07:56:41;7.50;;;3.10;;
41817;SDS011;27493;51.730;5.294;2023-04-02T07:59:06;4.10;;;2.63;;
41817;SDS011;27493;51.730;5.294;2023-04-02T08:01:32;4.90;;;2.70;;
41817;SDS011;27493;51.730;5.294;2023-04-02T08:03:59;6.13;;;3.20;;
41817;SDS011;27493;51.730;5.294;2023-04-02T08:06:25;5.97;;;2.93;;
41817;SDS011;27493;51.730;5.294;2023-04-02T08:08:50;5.37;;;3.07;;
41817;SDS011;27493;51.730;5.294;2023-04-02T08:11:15;3.93;;;3.20;;
41817;SDS011;27493;51.730;5.294;2023-04-02T08:13:41;4.77;;;2.93;;
41817;SDS011;27493;51.730;5.294;2023-04-02T08:16:06;5.10;;;3.00;;
41817;SDS011;27493;51.730;5.294;2023-04-02T08:18:32;6.33;;;3.30;;
41817;SDS011;27493;51.730;5.294;2023-04-02T08:20:57;4.77;;;3.37;;
41817;SDS011;27493;51.730;5.294;2023-04-02T08:23:23;5.43;;;3.40;;
41817;SDS011;27493;51.730;5.294;2023-04-02T08:25:48;5.53;;;3.53;;
41817;SDS011;27493;51.730;5.294;2023-04-02T08:28:13;5.13;;;3.30;;
41817;SDS011;27493;51.730;5.294;2023-04-02T08:30:39;5.10;;;3.40;;
41817;SDS011;27493;51.730;5.294;2023-04-02T08:33:04;4.43;;;3.53;;
41817;SDS011;27493;51.730;5.294;2023-04-02T08:35:30;9.17;;;3.57;;
41817;SDS011;27493;51.730;5.294;2023-04-02T08:37:55;7.20;;;3.70;;
41817;SDS011;27493;51.730;5.294;2023-04-02T08:40:26;7.53;;;4.07;;
41817;SDS011;27493;51.730;5.294;2023-04-02T08:48:10;5.80;;;3.23;;
41817;SDS011;27493;51.730;5.294;2023-04-02T08:50:38;5.30;;;3.43;;
41817;SDS011;27493;51.730;5.294;2023-04-02T08:53:05;5.13;;;3.27;;
41817;SDS011;27493;51.730;5.294;2023-04-02T08:55:35;4.67;;;3.53;;
41817;SDS011;27493;51.730;5.294;2023-04-02T09:00:47;4.67;;;3.30;;
41817;SDS011;27493;51.730;5.294;2023-04-02T09:03:34;8.07;;;3.23;;
41817;SDS011;27493;51.730;5.294;2023-04-02T09:06:00;5.80;;;3.43;;
41817;SDS011;27493;51.730;5.294;2023-04-02T09:08:26;7.23;;;3.50;;
41817;SDS011;27493;51.730;5.294;2023-04-02T09:13:29;7.53;;;3.20;;
41817;SDS011;27493;51.730;5.294;2023-04-02T09:16:08;6.40;;;3.23;;
41817;SDS011;27493;51.730;5.294;2023-04-02T09:18:34;6.27;;;3.50;;
41817;SDS011;27493;51.730;5.294;2023-04-02T09:21:03;5.33;;;3.30;;
41817;SDS011;27493;51.730;5.294;2023-04-02T09:23:32;6.60;;;3.77;;
41817;SDS011;27493;51.730;5.294;2023-04-02T09:25:57;6.73;;;3.63;;
41817;SDS011;27493;51.730;5.294;2023-04-02T09:28:22;9.37;;;4.60;;
41817;SDS011;27493;51.730;5.294;2023-04-02T09:33:46;5.57;;;3.77;;
41817;SDS011;27493;51.730;5.294;2023-04-02T09:39:16;8.13;;;3.70;;
41817;SDS011;27493;51.730;5.294;2023-04-02T09:44:44;5.77;;;3.47;;
41817;SDS011;27493;51.730;5.294;2023-04-02T09:47:22;8.03;;;3.30;;
41817;SDS011;27493;51.730;5.294;2023-04-02T09:49:48;6.20;;;3.30;;
41817;SDS011;27493;51.730;5.294;2023-04-02T09:52:28;7.27;;;4.00;;
41817;SDS011;27493;51.730;5.294;2023-04-02T09:57:37;3.97;;;3.40;;
41817;SDS011;27493;51.730;5.294;2023-04-02T10:00:10;7.40;;;3.37;;
41817;SDS011;27493;51.730;5.294;2023-04-02T10:02:36;7.03;;;3.73;;
41817;SDS011;27493;51.730;5.294;2023-04-02T10:05:03;5.67;;;2.97;;
41817;SDS011;27493;51.730;5.294;2023-04-02T10:07:44;6.17;;;3.57;;
41817;SDS011;27493;51.730;5.294;2023-04-02T10:10:25;5.37;;;3.37;;
41817;SDS011;27493;51.730;5.294;2023-04-02T10:13:05;10.50;;;3.70;;
41817;SDS011;27493;51.730;5.294;2023-04-02T10:15:32;6.70;;;3.30;;
41817;SDS011;27493;51.730;5.294;2023-04-02T10:18:01;6.30;;;3.70;;
41817;SDS011;27493;51.730;5.294;2023-04-02T10:20:27;4.73;;;3.40;;
41817;SDS011;27493;51.730;5.294;2023-04-02T10:22:53;7.27;;;3.27;;
41817;SDS011;27493;51.730;5.294;2023-04-02T10:25:20;5.40;;;3.40;;
41817;SDS011;27493;51.730;5.294;2023-04-02T10:28:10;4.70;;;3.03;;
41817;SDS011;27493;51.730;5.294;2023-04-02T10:30:39;6.33;;;3.60;;
41817;SDS011;27493;51.730;5.294;2023-04-02T10:40:46;5.43;;;3.10;;
41817;SDS011;27493;51.730;5.294;2023-04-02T10:46:00;4.33;;;3.07;;
41817;SDS011;27493;51.730;5.294;2023-04-02T10:48:29;5.93;;;3.50;;
41817;SDS011;27493;51.730;5.294;2023-04-02T10:51:00;5.50;;;3.30;;
41817;SDS011;27493;51.730;5.294;2023-04-02T10:54:11;7.27;;;3.33;;
41817;SDS011;27493;51.730;5.294;2023-04-02T10:56:16;9.20;;;3.67;;
41817;SDS011;27493;51.730;5.294;2023-04-02T10:58:44;3.10;;;2.80;;
41817;SDS011;27493;51.730;5.294;2023-04-02T11:01:16;4.20;;;2.90;;
41817;SDS011;27493;51.730;5.294;2023-04-02T11:03:43;6.33;;;3.03;;
41817;SDS011;27493;51.730;5.294;2023-04-02T11:06:14;5.40;;;2.93;;
41817;SDS011;27493;51.730;5.294;2023-04-02T11:08:43;3.10;;;2.80;;
41817;SDS011;27493;51.730;5.294;2023-04-02T11:11:13;4.43;;;3.03;;
41817;SDS011;27493;51.730;5.294;2023-04-02T11:16:11;4.93;;;2.90;;
41817;SDS011;27493;51.730;5.294;2023-04-02T11:18:38;6.40;;;2.93;;
41817;SDS011;27493;51.730;5.294;2023-04-02T11:21:05;6.37;;;2.50;;
41817;SDS011;27493;51.730;5.294;2023-04-02T11:23:31;4.17;;;2.80;;
41817;SDS011;27493;51.730;5.294;2023-04-02T11:28:41;4.70;;;2.50;;
41817;SDS011;27493;51.730;5.294;2023-04-02T11:31:06;5.17;;;2.77;;
41817;SDS011;27493;51.730;5.294;2023-04-02T11:33:39;3.23;;;2.20;;
41817;SDS011;27493;51.730;5.294;2023-04-02T11:38:50;4.10;;;2.50;;
41817;SDS011;27493;51.730;5.294;2023-04-02T11:44:20;7.23;;;2.53;;
41817;SDS011;27493;51.730;5.294;2023-04-02T11:46:45;2.67;;;2.47;;
41817;SDS011;27493;51.730;5.294;2023-04-02T11:51:55;5.43;;;2.87;;
41817;SDS011;27493;51.730;5.294;2023-04-02T11:54:22;2.93;;;2.63;;
41817;SDS011;27493;51.730;5.294;2023-04-02T11:56:57;3.20;;;2.90;;
41817;SDS011;27493;51.730;5.294;2023-04-02T11:59:31;5.17;;;2.57;;
41817;SDS011;27493;51.730;5.294;2023-04-02T12:02:05;5.57;;;3.23;;
41817;SDS011;27493;51.730;5.294;2023-04-02T12:09:46;3.70;;;2.80;;
41817;SDS011;27493;51.730;5.294;2023-04-02T12:12:14;5.30;;;3.00;;
41817;SDS011;27493;51.730;5.294;2023-04-02T12:14:45;7.40;;;2.97;;
41817;SDS011;27493;51.730;5.294;2023-04-02T12:17:23;4.43;;;2.83;;
41817;SDS011;27493;51.730;5.294;2023-04-02T12:19:52;5.13;;;2.80;;
41817;SDS011;27493;51.730;5.294;2023-04-02T12:22:22;4.47;;;2.77;;
41817;SDS011;27493;51.730;5.294;2023-04-02T12:24:47;3.50;;;3.17;;
41817;SDS011;27493;51.730;5.294;2023-04-02T12:27:17;4.07;;;3.27;;
41817;SDS011;27493;51.730;5.294;2023-04-02T12:29:46;3.43;;;3.00;;
41817;SDS011;27493;51.730;5.294;2023-04-02T12:32:19;5.60;;;2.90;;
41817;SDS011;27493;51.730;5.294;2023-04-02T12:34:47;4.70;;;3.40;;
41817;SDS011;27493;51.730;5.294;2023-04-02T12:37:18;5.57;;;3.40;;
41817;SDS011;27493;51.730;5.294;2023-04-02T12:39:50;5.07;;;3.00;;
41817;SDS011;27493;51.730;5.294;2023-04-02T12:42:34;6.50;;;3.23;;
41817;SDS011;27493;51.730;5.294;2023-04-02T12:45:00;5.30;;;3.30;;
41817;SDS011;27493;51.730;5.294;2023-04-02T12:47:26;5.80;;;3.23;;
41817;SDS011;27493;51.730;5.294;2023-04-02T12:49:52;4.00;;;3.13;;
41817;SDS011;27493;51.730;5.294;2023-04-02T12:52:18;6.13;;;2.83;;
41817;SDS011;27493;51.730;5.294;2023-04-02T12:55:14;6.47;;;3.57;;
41817;SDS011;27493;51.730;5.294;2023-04-02T12:57:31;4.57;;;3.03;;
41817;SDS011;27493;51.730;5.294;2023-04-02T12:59:58;5.37;;;3.00;;
41817;SDS011;27493;51.730;5.294;2023-04-02T13:02:26;6.33;;;3.00;;
41817;SDS011;27493;51.730;5.294;2023-04-02T13:04:52;5.10;;;3.23;;
41817;SDS011;27493;51.730;5.294;2023-04-02T13:07:19;3.17;;;2.93;;
41817;SDS011;27493;51.730;5.294;2023-04-02T13:09:46;4.17;;;2.90;;
41817;SDS011;27493;51.730;5.294;2023-04-02T13:14:52;5.20;;;3.13;;
41817;SDS011;27493;51.730;5.294;2023-04-02T13:17:37;4.97;;;3.05;;
41817;SDS011;27493;51.730;5.294;2023-04-02T13:25:47;5.32;;;3.10;;
41817;SDS011;27493;51.730;5.294;2023-04-02T13:28:12;4.78;;;3.00;;
41817;SDS011;27493;51.730;5.294;2023-04-02T13:30:38;5.63;;;3.23;;
41817;SDS011;27493;51.730;5.294;2023-04-02T13:33:03;4.57;;;2.60;;
41817;SDS011;27493;51.730;5.294;2023-04-02T13:35:28;4.70;;;2.87;;
41817;SDS011;27493;51.730;5.294;2023-04-02T13:37:53;5.90;;;2.90;;
41817;SDS011;27493;51.730;5.294;2023-04-02T13:40:19;5.60;;;3.07;;
41817;SDS011;27493;51.730;5.294;2023-04-02T13:42:44;4.10;;;3.00;;
41817;SDS011;27493;51.730;5.294;2023-04-02T13:45:26;4.80;;;2.83;;
41817;SDS011;27493;51.730;5.294;2023-04-02T13:47:52;7.37;;;3.10;;
41817;SDS011;27493;51.730;5.294;2023-04-02T13:50:21;7.07;;;2.90;;
41817;SDS011;27493;51.730;5.294;2023-04-02T13:52:48;5.30;;;3.00;;
41817;SDS011;27493;51.730;5.294;2023-04-02T13:55:14;5.27;;;2.60;;
41817;SDS011;27493;51.730;5.294;2023-04-02T13:57:40;3.87;;;2.80;;
41817;SDS011;27493;51.730;5.294;2023-04-02T14:00:05;4.00;;;2.90;;
41817;SDS011;27493;51.730;5.294;2023-04-02T14:02:30;5.83;;;3.10;;
41817;SDS011;27493;51.730;5.294;2023-04-02T14:07:54;5.33;;;2.93;;
41817;SDS011;27493;51.730;5.294;2023-04-02T14:10:34;6.23;;;2.73;;
41817;SDS011;27493;51.730;5.294;2023-04-02T14:13:11;3.63;;;3.20;;
41817;SDS011;27493;51.730;5.294;2023-04-02T14:16:26;6.10;;;2.90;;
41817;SDS011;27493;51.730;5.294;2023-04-02T14:18:46;3.17;;;2.80;;
41817;SDS011;27493;51.730;5.294;2023-04-02T14:21:27;4.40;;;3.53;;
41817;SDS011;27493;51.730;5.294;2023-04-02T14:29:16;5.70;;;3.20;;
41817;SDS011;27493;51.730;5.294;2023-04-02T14:31:50;5.90;;;3.17;;
41817;SDS011;27493;51.730;5.294;2023-04-02T14:42:06;5.07;;;2.57;;
41817;SDS011;27493;51.730;5.294;2023-04-02T14:44:29;5.77;;;2.70;;
41817;SDS011;27493;51.730;5.294;2023-04-02T14:46:59;5.40;;;2.80;;
41817;SDS011;27493;51.730;5.294;2023-04-02T14:49:30;3.97;;;2.50;;
41817;SDS011;27493;51.730;5.294;2023-04-02T14:52:04;4.37;;;2.90;;
41817;SDS011;27493;51.730;5.294;2023-04-02T15:05:00;3.77;;;2.40;;
41817;SDS011;27493;51.730;5.294;2023-04-02T15:07:27;3.53;;;2.43;;
41817;SDS011;27493;51.730;5.294;2023-04-02T15:10:03;4.73;;;2.43;;
41817;SDS011;27493;51.730;5.294;2023-04-02T15:12:31;2.80;;;2.30;;
41817;SDS011;27493;51.730;5.294;2023-04-02T15:15:18;3.23;;;2.60;;
41817;SDS011;27493;51.730;5.294;2023-04-02T15:17:44;3.87;;;2.47;;
41817;SDS011;27493;51.730;5.294;2023-04-02T15:20:14;2.67;;;2.20;;
41817;SDS011;27493;51.730;5.294;2023-04-02T15:22:42;3.87;;;2.30;;
41817;SDS011;27493;51.730;5.294;2023-04-02T15:25:14;2.90;;;2.20;;
41817;SDS011;27493;51.730;5.294;2023-04-02T15:30:40;3.07;;;2.27;;
41817;SDS011;27493;51.730;5.294;2023-04-02T15:33:40;3.37;;;2.40;;
41817;SDS011;27493;51.730;5.294;2023-04-02T15:36:01;4.03;;;2.47;;
41817;SDS011;27493;51.730;5.294;2023-04-02T15:38:38;4.77;;;2.40;;
41817;SDS011;27493;51.730;5.294;2023-04-02T15:51:58;4.27;;;2.30;;
41817;SDS011;27493;51.730;5.294;2023-04-02T15:54:29;4.10;;;2.50;;
41817;SDS011;27493;51.730;5.294;2023-04-02T16:05:16;5.13;;;2.37;;
41817;SDS011;27493;51.730;5.294;2023-04-02T16:10:18;3.87;;;2.40;;
41817;SDS011;27493;51.730;5.294;2023-04-02T16:12:45;6.33;;;2.23;;
41817;SDS011;27493;51.730;5.294;2023-04-02T16:15:29;3.10;;;2.47;;
41817;SDS011;27493;51.730;5.294;2023-04-02T16:18:12;4.20;;;2.50;;
41817;SDS011;27493;51.730;5.294;2023-04-02T16:20:48;4.77;;;2.60;;
41817;SDS011;27493;51.730;5.294;2023-04-02T16:23:21;4.10;;;2.60;;
41817;SDS011;27493;51.730;5.294;2023-04-02T16:28:26;4.63;;;2.20;;
41817;SDS011;27493;51.730;5.294;2023-04-02T16:30:54;4.73;;;2.53;;
41817;SDS011;27493;51.730;5.294;2023-04-02T16:40:58;3.27;;;2.00;;
41817;SDS011;27493;51.730;5.294;2023-04-02T16:46:05;6.80;;;3.50;;
41817;SDS011;27493;51.730;5.294;2023-04-02T16:56:24;6.67;;;4.77;;
41817;SDS011;27493;51.730;5.294;2023-04-02T17:01:32;2.80;;;2.27;;
41817;SDS011;27493;51.730;5.294;2023-04-02T17:09:08;3.53;;;1.90;;
41817;SDS011;27493;51.730;5.294;2023-04-02T17:11:47;3.40;;;1.90;;
41817;SDS011;27493;51.730;5.294;2023-04-02T17:14:16;2.73;;;2.30;;
41817;SDS011;27493;51.730;5.294;2023-04-02T17:16:46;2.90;;;1.90;;
41817;SDS011;27493;51.730;5.294;2023-04-02T17:19:14;5.27;;;2.53;;
41817;SDS011;27493;51.730;5.294;2023-04-02T17:21:41;3.33;;;2.50;;
41817;SDS011;27493;51.730;5.294;2023-04-02T17:24:14;6.10;;;2.40;;
41817;SDS011;27493;51.730;5.294;2023-04-02T17:26:42;4.70;;;2.40;;
41817;SDS011;27493;51.730;5.294;2023-04-02T17:29:11;3.13;;;2.13;;
41817;SDS011;27493;51.730;5.294;2023-04-02T17:31:39;3.97;;;1.90;;
41817;SDS011;27493;51.730;5.294;2023-04-02T17:34:12;3.50;;;2.13;;
41817;SDS011;27493;51.730;5.294;2023-04-02T17:39:40;4.37;;;2.20;;
41817;SDS011;27493;51.730;5.294;2023-04-02T17:44:42;4.17;;;2.50;;
41817;SDS011;27493;51.730;5.294;2023-04-02T17:49:43;4.70;;;2.23;;
41817;SDS011;27493;51.730;5.294;2023-04-02T17:59:53;5.43;;;2.67;;
41817;SDS011;27493;51.730;5.294;2023-04-02T18:02:23;4.57;;;2.73;;
41817;SDS011;27493;51.730;5.294;2023-04-02T18:10:25;4.47;;;3.03;;
41817;SDS011;27493;51.730;5.294;2023-04-02T18:18:54;5.40;;;3.10;;
41817;SDS011;27493;51.730;5.294;2023-04-02T18:24:14;6.90;;;3.37;;
41817;SDS011;27493;51.730;5.294;2023-04-02T18:39:53;4.10;;;2.90;;
41817;SDS011;27493;51.730;5.294;2023-04-02T18:47:42;4.07;;;2.83;;
41817;SDS011;27493;51.730;5.294;2023-04-02T18:50:15;3.03;;;2.30;;
41817;SDS011;27493;51.730;5.294;2023-04-02T18:52:41;4.23;;;2.80;;
41817;SDS011;27493;51.730;5.294;2023-04-02T18:55:14;4.47;;;2.83;;
41817;SDS011;27493;51.730;5.294;2023-04-02T18:57:41;6.23;;;2.50;;
41817;SDS011;27493;51.730;5.294;2023-04-02T19:02:46;4.87;;;3.00;;
41817;SDS011;27493;51.730;5.294;2023-04-02T19:07:58;5.00;;;3.07;;
41817;SDS011;27493;51.730;5.294;2023-04-02T19:10:30;5.13;;;3.40;;
41817;SDS011;27493;51.730;5.294;2023-04-02T19:12:56;4.80;;;3.60;;
41817;SDS011;27493;51.730;5.294;2023-04-02T19:15:22;5.50;;;3.27;;
41817;SDS011;27493;51.730;5.294;2023-04-02T19:17:56;4.63;;;2.77;;
41817;SDS011;27493;51.730;5.294;2023-04-02T19:20:31;5.23;;;3.23;;